Time;durP1;ratioP1;P1;durP2;ratioP2;P2;SDS_P1;SDS_P2;PMS_P1;PMS_P2;Temp;Humidity;BMP_temperature;BMP_pressure;BME280_temperature;BME280_humidity;BME280_pressure;Samples;Min_cycle;Max_cycle;Signal;HPM_P1;HPM_P2
2022/07/22 00:00:15;;;;;;;10.40;3.83;;;;;;;;;;5133599;27;20043;-87
2022/07/22 00:02:41;;;;;;;11.98;3.25;;;;;;;;;;5134006;27;20055;-85
2022/07/22 00:05:10;;;;;;;8.52;2.60;;;;;;;;;;5134643;27;20118;-86
2022/07/22 00:07:36;;;;;;;6.80;3.10;;;;;;;;;;5117449;27;20031;-86
2022/07/22 00:10:02;;;;;;;15.52;3.60;;;16.00;99.90;;;;;;5133832;27;20047;-86
2022/07/22 00:12:28;;;;;;;7.45;2.72;;;;;;;;;;5133704;27;20540;-86
2022/07/22 00:14:54;;;;;;;6.93;2.60;;;;;;;;;;5116893;27;20106;-87
2022/07/22 00:17:20;;;;;;;8.48;2.35;;;;;;;;;;5133849;27;20031;-85
2022/07/22 00:19:46;;;;;;;12.20;3.40;;;;;;;;;;5133694;27;20506;-87
2022/07/22 00:22:12;;;;;;;6.18;1.90;;;;;;;;;;5117283;27;20039;-87
2022/07/22 00:24:38;;;;;;;8.80;3.28;;;;;;;;;;5134294;27;20117;-87
2022/07/22 00:27:05;;;;;;;4.78;2.15;;;;;;;;;;5117030;27;20039;-86
2022/07/22 00:29:31;;;;;;;10.85;2.90;;;;;;;;;;5133674;27;20035;-86
2022/07/22 00:31:57;;;;;;;16.80;2.65;;;;;;;;;;5115847;27;20049;-86
2022/07/22 00:34:22;;;;;;;5.63;2.65;;;16.20;99.90;;;;;;5116016;27;20087;-84
2022/07/22 00:36:48;;;;;;;6.35;2.13;;;;;;;;;;5116272;27;20043;-87
2022/07/22 00:39:15;;;;;;;6.25;2.70;;;;;;;;;;5133041;27;20047;-84
2022/07/22 00:41:41;;;;;;;5.53;2.15;;;;;;;;;;5133350;27;20043;-82
2022/07/22 00:44:08;;;;;;;4.32;2.20;;;;;;;;;;5115557;27;20100;-83
2022/07/22 00:46:35;;;;;;;6.75;2.53;;;;;;;;;;5133350;27;20043;-84
2022/07/22 00:49:02;;;;;;;8.23;2.70;;;15.90;99.90;;;;;;5133016;27;20042;-82
2022/07/22 00:51:29;;;;;;;9.55;2.38;;;15.80;99.90;;;;;;5098199;27;20100;-86
2022/07/22 00:53:56;;;;;;;7.30;2.70;;;15.90;99.90;;;;;;5116169;27;20039;-85
2022/07/22 00:56:23;;;;;;;4.13;2.65;;;;;;;;;;5132529;27;20047;-85
2022/07/22 00:58:52;;;;;;;6.32;2.50;;;15.90;99.90;;;;;;5115371;27;20043;-83
2022/07/22 01:01:19;;;;;;;4.35;1.90;;;16.00;99.90;;;;;;5132788;27;20039;-85
2022/07/22 01:03:45;;;;;;;7.28;1.90;;;;;;;;;;5115681;27;20050;-84
2022/07/22 01:06:11;;;;;;;6.88;3.03;;;;;;;;;;5132487;27;20384;-83
2022/07/22 01:08:38;;;;;;;8.30;3.60;;;;;;;;;;5115100;27;20046;-84
2022/07/22 01:11:18;;;;;;;13.40;3.78;;;16.00;99.90;;;;;;5115257;27;20034;-82
2022/07/22 01:13:45;;;;;;;15.98;3.55;;;16.10;99.90;;;;;;5114935;27;20070;-85
2022/07/22 01:16:12;;;;;;;8.07;2.65;;;;;;;;;;5132971;27;20145;-83
2022/07/22 01:18:39;;;;;;;3.45;2.17;;;15.90;99.90;;;;;;5130462;27;20112;-85
2022/07/22 01:21:08;;;;;;;5.57;2.63;;;;;;;;;;5109066;27;20525;-87
2022/07/22 01:23:35;;;;;;;7.70;2.13;;;;;;;;;;5132562;27;20516;-86
2022/07/22 01:26:01;;;;;;;7.28;2.58;;;;;;;;;;5132482;27;20092;-86
2022/07/22 01:28:27;;;;;;;5.07;3.17;;;;;;;;;;5132321;27;20051;-86
2022/07/22 01:30:53;;;;;;;4.47;2.40;;;;;;;;;;5115056;27;20130;-85
2022/07/22 01:33:20;;;;;;;7.10;2.15;;;16.00;99.90;;;;;;5132577;27;20048;-85
2022/07/22 01:35:46;;;;;;;4.25;1.90;;;;;;;;;;5132130;27;20043;-87
2022/07/22 01:38:13;;;;;;;6.80;2.72;;;16.00;99.90;;;;;;5132234;27;20120;-84
2022/07/22 01:40:40;;;;;;;7.03;2.15;;;;;;;;;;5103149;27;20051;-86
2022/07/22 01:43:06;;;;;;;9.38;2.33;;;;;;;;;;5114445;27;20531;-85
2022/07/22 01:45:32;;;;;;;5.00;2.10;;;;;;;;;;5124299;27;20082;-85
2022/07/22 01:47:58;;;;;;;6.60;1.90;;;;;;;;;;5114764;27;20488;-86
2022/07/22 01:50:24;;;;;;;9.05;3.80;;;;;;;;;;5113176;27;20088;-85
2022/07/22 01:52:51;;;;;;;6.15;1.98;;;;;;;;;;5105329;28;20396;-84
2022/07/22 01:55:18;;;;;;;4.78;2.40;;;;;;;;;;5090679;27;20036;-84
2022/07/22 01:57:44;;;;;;;6.72;2.35;;;;;;;;;;5114567;27;20405;-83
2022/07/22 02:00:11;;;;;;;6.90;2.00;;;15.80;99.90;;;;;;5097766;27;20099;-84
2022/07/22 02:02:37;;;;;;;9.82;2.05;;;;;;;;;;5109296;27;20047;-82
2022/07/22 02:05:04;;;;;;;5.82;2.08;;;16.00;99.90;;;;;;5107159;28;20047;-83
2022/07/22 02:07:30;;;;;;;6.43;2.10;;;;;;;;;;5129201;27;20066;-82
2022/07/22 02:09:56;;;;;;;6.45;2.17;;;;;;;;;;5130757;27;20046;-82
2022/07/22 02:12:22;;;;;;;3.20;1.50;;;;;;;;;;5093821;27;20051;-82
2022/07/22 02:14:49;;;;;;;5.82;1.65;;;;;;;;;;5096855;27;20175;-82
2022/07/22 02:17:15;;;;;;;6.53;1.83;;;;;;;;;;5096424;27;20254;-82
2022/07/22 02:19:41;;;;;;;4.15;1.48;;;;;;;;;;5114518;27;20078;-82
2022/07/22 02:22:07;;;;;;;7.65;1.83;;;;;;;;;;5114217;27;20503;-85
2022/07/22 02:24:34;;;;;;;5.32;2.00;;;;;;;;;;5111871;27;20043;-84
2022/07/22 02:27:01;;;;;;;5.38;1.33;;;;;;;;;;5113270;27;20039;-83
2022/07/22 02:29:27;;;;;;;4.65;1.88;;;;;;;;;;5089062;27;20065;-82
2022/07/22 02:31:53;;;;;;;10.23;3.15;;;;;;;;;;5096636;27;20058;-83
2022/07/22 02:34:19;;;;;;;4.22;1.40;;;;;;;;;;5097075;27;20051;-86
2022/07/22 02:36:45;;;;;;;5.25;1.52;;;;;;;;;;5096662;27;20039;-84
2022/07/22 02:39:12;;;;;;;6.28;1.52;;;;;;;;;;5113531;27;20059;-86
2022/07/22 02:41:38;;;;;;;7.03;1.65;;;;;;;;;;5131141;27;20035;-83
2022/07/22 02:44:04;;;;;;;6.60;1.83;;;;;;;;;;5114283;28;20122;-83
2022/07/22 02:46:30;;;;;;;2.58;1.40;;;;;;;;;;5130433;27;20062;-82
2022/07/22 02:48:56;;;;;;;4.30;1.80;;;;;;;;;;5113545;27;20039;-82
2022/07/22 02:51:22;;;;;;;5.32;3.03;;;;;;;;;;5113284;28;20047;-83
2022/07/22 02:53:49;;;;;;;2.97;1.90;;;;;;;;;;5113647;27;20037;-85
2022/07/22 02:56:15;;;;;;;3.92;2.00;;;;;;;;;;5113771;28;20039;-83
2022/07/22 02:58:41;;;;;;;6.28;2.03;;;;;;;;;;5113643;27;20483;-83
2022/07/22 03:01:07;;;;;;;5.63;1.75;;;;;;;;;;5113546;28;20046;-83
2022/07/22 03:03:33;;;;;;;5.25;1.83;;;;;;;;;;5113397;28;20039;-82
2022/07/22 03:05:59;;;;;;;2.17;1.65;;;;;;;;;;5113950;28;20045;-83
2022/07/22 03:08:26;;;;;;;4.10;1.85;;;;;;;;;;5130249;28;20108;-82
2022/07/22 03:10:53;;;;;;;7.93;2.13;;;;;;;;;;5113309;28;20058;-82
2022/07/22 03:13:19;;;;;;;7.15;2.58;;;;;;;;;;5130857;28;20043;-84
2022/07/22 03:15:45;;;;;;;2.47;1.55;;;;;;;;;;5113198;28;20045;-80
2022/07/22 03:18:11;;;;;;;7.90;2.25;;;;;;;;;;5130959;28;20035;-80
2022/07/22 03:20:37;;;;;;;2.58;1.63;;;;;;;;;;5130899;28;20047;-80
2022/07/22 03:23:03;;;;;;;6.57;2.10;;;;;;;;;;5129996;28;20059;-81
2022/07/22 03:25:30;;;;;;;6.28;2.70;;;;;;;;;;5113454;28;20051;-80
2022/07/22 03:27:57;;;;;;;6.55;1.80;;;;;;;;;;5112901;27;20039;-82
2022/07/22 03:30:23;;;;;;;3.80;2.20;;;;;;;;;;5134525;27;20067;-80
2022/07/22 03:32:49;;;;;;;9.90;2.75;;;;;;;;;;5117568;27;20047;-80
2022/07/22 03:35:15;;;;;;;4.03;2.30;;;;;;;;;;5134227;27;20376;-81
2022/07/22 03:37:41;;;;;;;6.63;2.22;;;;;;;;;;5134881;27;20483;-80
2022/07/22 03:40:08;;;;;;;8.65;2.45;;;;;;;;;;5133789;27;20096;-80
2022/07/22 03:42:34;;;;;;;3.05;1.70;;;;;;;;;;5134566;27;20035;-80
2022/07/22 03:45:00;;;;;;;6.05;2.05;;;;;;;;;;5117103;27;20182;-83
2022/07/22 03:47:26;;;;;;;7.30;2.45;;;;;;;;;;5117025;27;20039;-83
2022/07/22 03:49:52;;;;;;;5.70;2.38;;;;;;;;;;5117231;27;20054;-83
2022/07/22 03:52:18;;;;;;;7.38;2.08;;;;;;;;;;5117072;27;20510;-83
2022/07/22 03:54:44;;;;;;;6.25;2.00;;;;;;;;;;5116340;27;20499;-86
2022/07/22 03:57:11;;;;;;;7.30;2.25;;;;;;;;;;5117139;27;20039;-83
2022/07/22 03:59:37;;;;;;;6.07;3.25;;;;;;;;;;5134010;27;20062;-83
2022/07/22 04:02:03;;;;;;;7.40;2.38;;;15.50;99.90;;;;;;5117151;27;20039;-84
2022/07/22 04:04:29;;;;;;;9.00;2.38;;;;;;;;;;5133839;27;20043;-82
2022/07/22 04:06:55;;;;;;;4.80;2.05;;;;;;;;;;5125963;27;20572;-81
2022/07/22 04:09:22;;;;;;;6.88;1.75;;;;;;;;;;5116351;27;20476;-80
2022/07/22 04:11:50;;;;;;;5.60;2.05;;;;;;;;;;5116809;27;20097;-83
2022/07/22 04:14:16;;;;;;;7.40;2.10;;;;;;;;;;5116622;27;20043;-80
2022/07/22 04:16:43;;;;;;;7.75;1.80;;;;;;;;;;5115949;27;20503;-83
2022/07/22 04:19:10;;;;;;;8.73;1.70;;;;;;;;;;5134219;27;20399;-84
2022/07/22 04:21:36;;;;;;;3.95;1.80;;;;;;;;;;5116653;27;20046;-82
2022/07/22 04:24:02;;;;;;;6.57;1.73;;;;;;;;;;5133431;27;21050;-83
2022/07/22 04:26:28;;;;;;;18.77;2.25;;;;;;;;;;5116209;27;20047;-83
2022/07/22 04:28:54;;;;;;;2.13;1.50;;;;;;;;;;5134576;27;20042;-83
2022/07/22 04:31:20;;;;;;;5.10;2.08;;;;;;;;;;5133334;27;20050;-82
2022/07/22 04:33:46;;;;;;;6.20;2.20;;;;;;;;;;5096549;28;20035;-82
2022/07/22 04:36:12;;;;;;;10.23;1.92;;;;;;;;;;5116208;27;20047;-81
2022/07/22 04:38:38;;;;;;;4.32;2.20;;;;;;;;;;5133240;27;20058;-80
2022/07/22 04:41:05;;;;;;;4.93;1.98;;;;;;;;;;5131824;27;20489;-81
2022/07/22 04:43:31;;;;;;;4.57;2.20;;;;;;;;;;5116369;27;20043;-81
2022/07/22 04:45:57;;;;;;;4.45;1.92;;;;;;;;;;5115506;27;20134;-83
2022/07/22 04:48:23;;;;;;;4.60;1.80;;;;;;;;;;5116045;27;20122;-81
2022/07/22 04:50:49;;;;;;;5.07;2.65;;;;;;;;;;5116054;27;20043;-82
2022/07/22 04:53:15;;;;;;;4.95;1.95;;;;;;;;;;5115692;27;20042;-81
2022/07/22 04:55:41;;;;;;;3.78;2.00;;;;;;;;;;5115603;27;20134;-81
2022/07/22 04:58:07;;;;;;;8.60;2.55;;;;;;;;;;5132941;27;20044;-82
2022/07/22 05:00:33;;;;;;;6.07;2.40;;;;;;;;;;5114971;27;20043;-83
2022/07/22 05:03:00;;;;;;;3.53;1.77;;;;;;;;;;5132929;27;20066;-83
2022/07/22 05:05:25;;;;;;;6.18;1.67;;;15.80;99.90;;;;;;5132191;27;20139;-84
2022/07/22 05:07:51;;;;;;;6.03;1.98;;;;;;;;;;5132904;27;20103;-83
2022/07/22 05:10:17;;;;;;;3.83;1.60;;;;;;;;;;5132836;27;20046;-81
2022/07/22 05:12:43;;;;;;;9.35;2.05;;;;;;;;;;5115097;27;20406;-81
2022/07/22 05:15:10;;;;;;;6.53;2.20;;;;;;;;;;5132717;27;20045;-84
2022/07/22 05:17:36;;;;;;;6.60;2.20;;;;;;;;;;5124436;27;20039;-83
2022/07/22 05:20:03;;;;;;;7.20;2.15;;;15.80;99.90;;;;;;5132315;27;20074;-82
2022/07/22 05:22:29;;;;;;;5.45;2.03;;;;;;;;;;5115212;27;20406;-84
2022/07/22 05:24:55;;;;;;;3.92;1.75;;;;;;;;;;5132713;27;20572;-83
2022/07/22 05:27:21;;;;;;;7.53;1.90;;;;;;;;;;5131801;27;20047;-81
2022/07/22 05:29:47;;;;;;;8.13;1.85;;;;;;;;;;5132680;27;20399;-82
2022/07/22 05:32:14;;;;;;;5.05;1.88;;;15.80;99.90;;;;;;5132488;27;20414;-81
2022/07/22 05:34:40;;;;;;;6.30;2.17;;;;;;;;;;5115100;27;20049;-84
2022/07/22 05:37:06;;;;;;;6.60;1.70;;;;;;;;;;5115734;27;20035;-82
2022/07/22 05:39:32;;;;;;;3.35;1.90;;;;;;;;;;5114983;27;20059;-82
2022/07/22 05:42:01;;;;;;;10.75;2.45;;;;;;;;;;5115565;27;20046;-84
2022/07/22 05:44:27;;;;;;;8.13;2.53;;;;;;;;;;5132334;27;20051;-84
2022/07/22 05:46:53;;;;;;;4.70;1.58;;;;;;;;;;5115491;27;20046;-82
2022/07/22 05:49:21;;;;;;;4.78;1.52;;;;;;;;;;5132123;27;20435;-81
2022/07/22 05:51:47;;;;;;;6.18;2.20;;;;;;;;;;5115230;27;20046;-83
2022/07/22 05:54:13;;;;;;;6.35;2.05;;;;;;;;;;5115375;27;20050;-84
2022/07/22 05:56:40;;;;;;;4.55;2.28;;;;;;;;;;5131679;27;20419;-83
2022/07/22 05:59:06;;;;;;;4.20;1.70;;;;;;;;;;5114941;27;20042;-83
2022/07/22 06:01:32;;;;;;;3.35;1.38;;;16.20;99.90;;;;;;5132225;27;20062;-80
2022/07/22 06:03:58;;;;;;;5.57;2.28;;;;;;;;;;5131091;27;20043;-80
2022/07/22 06:06:24;;;;;;;3.88;1.67;;;;;;;;;;5114653;27;20039;-81
2022/07/22 06:08:53;;;;;;;5.05;1.73;;;;;;;;;;5130219;27;20039;-81
2022/07/22 06:11:20;;;;;;;9.95;2.50;;;;;;;;;;5131960;27;20047;-81
2022/07/22 06:13:46;;;;;;;5.15;1.85;;;;;;;;;;5131581;27;20110;-81
2022/07/22 06:16:12;;;;;;;7.25;1.73;;;;;;;;;;5131065;27;20047;-81
2022/07/22 06:18:38;;;;;;;3.05;1.70;;;;;;;;;;5131866;27;20114;-82
2022/07/22 06:21:05;;;;;;;7.68;1.90;;;16.30;99.90;;;;;;5131372;27;20091;-81
2022/07/22 06:23:31;;;;;;;5.18;2.00;;;;;;;;;;5131467;27;20107;-81
2022/07/22 06:25:59;;;;;;;3.08;1.67;;;;;;;;;;5114028;27;20078;-82
2022/07/22 06:28:25;;;;;;;11.48;1.90;;;;;;;;;;5114125;27;20074;-81
2022/07/22 06:30:51;;;;;;;4.05;2.10;;;;;;;;;;5114185;27;20039;-81
2022/07/22 06:33:17;;;;;;;4.63;1.83;;;;;;;;;;5131653;27;20087;-82
2022/07/22 06:35:44;;;;;;;6.90;2.17;;;;;;;;;;5114552;27;20039;-80
2022/07/22 06:38:10;;;;;;;4.22;1.63;;;;;;;;;;5131787;27;20407;-81
2022/07/22 06:40:36;;;;;;;5.53;1.92;;;;;;;;;;5131166;27;20058;-81
2022/07/22 06:43:03;;;;;;;3.00;2.10;;;;;;;;;;5114564;27;20832;-82
2022/07/22 06:45:29;;;;;;;2.70;1.98;;;;;;;;;;5107520;27;20042;-80
2022/07/22 06:47:55;;;;;;;3.53;1.90;;;;;;;;;;5131321;27;20492;-82
2022/07/22 06:50:21;;;;;;;8.30;3.33;;;;;;;;;;5132390;27;20035;-83
2022/07/22 06:52:48;;;;;;;2.80;1.42;;;;;;;;;;5131432;27;20414;-85
2022/07/22 06:55:15;;;;;;;5.35;1.95;;;;;;;;;;5131408;27;20552;-82
2022/07/22 06:57:41;;;;;;;10.00;2.17;;;;;;;;;;5131025;27;20079;-83
2022/07/22 07:00:08;;;;;;;12.23;2.25;;;;;;;;;;5130770;27;20099;-84
2022/07/22 07:02:34;;;;;;;7.25;1.90;;;;;;;;;;5131112;27;20051;-83
2022/07/22 07:05:00;;;;;;;9.95;2.17;;;;;;;;;;5131649;28;20126;-84
2022/07/22 07:07:26;;;;;;;4.20;1.58;;;;;;;;;;5132318;28;20091;-83
2022/07/22 07:09:52;;;;;;;3.58;1.83;;;;;;;;;;5131343;28;20053;-82
2022/07/22 07:12:18;;;;;;;4.75;1.30;;;;;;;;;;5130803;28;20114;-82
2022/07/22 07:14:44;;;;;;;3.55;1.40;;;;;;;;;;5125398;27;20479;-82
2022/07/22 07:17:10;;;;;;;9.20;2.05;;;;;;;;;;5099757;28;20050;-82
2022/07/22 07:19:36;;;;;;;4.38;1.30;;;;;;;;;;5131315;28;20372;-83
2022/07/22 07:22:02;;;;;;;4.97;1.50;;;;;;;;;;5114224;28;20047;-82
2022/07/22 07:24:28;;;;;;;3.05;1.33;;;;;;;;;;5132505;28;20035;-82
2022/07/22 07:26:54;;;;;;;6.15;2.10;;;;;;;;;;5130271;28;20402;-84
2022/07/22 07:29:22;;;;;;;3.17;1.48;;;;;;;;;;5114217;28;20035;-83
2022/07/22 07:31:48;;;;;;;3.90;1.95;;;;;;;;;;5114267;28;20491;-83
2022/07/22 07:34:14;;;;;;;2.42;2.00;;;;;;;;;;5132396;28;20050;-82
2022/07/22 07:36:40;;;;;;;6.95;1.33;;;;;;;;;;5133953;27;20114;-83
2022/07/22 07:39:06;;;;;;;7.70;1.70;;;17.00;99.90;;;;;;5133760;27;20055;-81
2022/07/22 07:41:32;;;;;;;9.00;1.45;;;;;;;;;;5115385;28;20402;-83
2022/07/22 07:43:59;;;;;;;6.55;1.67;;;;;;;;;;5115574;28;20483;-81
2022/07/22 07:46:25;;;;;;;7.97;2.00;;;;;;;;;;5132490;28;20043;-85
2022/07/22 07:48:51;;;;;;;4.78;1.65;;;;;;;;;;5132162;28;20132;-84
2022/07/22 07:51:17;;;;;;;3.00;1.40;;;;;;;;;;5133076;28;20046;-82
2022/07/22 07:53:46;;;;;;;5.25;1.45;;;;;;;;;;5134043;27;20043;-82
2022/07/22 07:56:13;;;;;;;4.57;1.60;;;;;;;;;;5133361;28;20046;-82
2022/07/22 07:58:39;;;;;;;7.20;1.70;;;;;;;;;;5133180;28;20051;-86
2022/07/22 08:01:05;;;;;;;2.40;1.33;;;;;;;;;;5115668;28;20071;-83
2022/07/22 08:03:31;;;;;;;3.70;1.65;;;;;;;;;;5116538;28;20074;-83
2022/07/22 08:05:59;;;;;;;7.03;1.25;;;;;;;;;;5133301;28;20495;-85
2022/07/22 08:08:25;;;;;;;4.40;1.40;;;;;;;;;;5132718;28;20039;-82
2022/07/22 08:10:52;;;;;;;3.95;1.92;;;;;;;;;;5116155;28;20454;-82
2022/07/22 08:13:18;;;;;;;2.78;1.50;;;;;;;;;;5132151;28;20039;-82
2022/07/22 08:15:44;;;;;;;7.82;1.75;;;;;;;;;;5131784;27;20039;-83
2022/07/22 08:18:11;;;;;;;5.00;1.80;;;;;;;;;;5135256;27;20043;-84
2022/07/22 08:20:37;;;;;;;5.18;1.75;;;;;;;;;;5134978;27;20039;-83
2022/07/22 08:23:03;;;;;;;2.78;1.35;;;;;;;;;;5135310;27;21010;-81
2022/07/22 08:25:29;;;;;;;6.15;1.55;;;;;;;;;;5118381;27;20046;-81
2022/07/22 08:27:58;;;;;;;3.42;1.80;;;;;;;;;;5134790;27;20059;-82
2022/07/22 08:30:27;;;;;;;4.22;1.42;;;;;;;;;;5136268;27;20150;-83
2022/07/22 08:32:53;;;;;;;3.63;1.27;;;;;;;;;;5136200;27;20046;-82
2022/07/22 08:35:19;;;;;;;8.60;2.40;;;;;;;;;;5119650;27;20055;-83
2022/07/22 08:37:47;;;;;;;5.38;1.38;;;;;;;;;;5136577;27;20078;-81
2022/07/22 08:40:17;;;;;;;2.92;1.08;;;17.50;99.90;;;;;;5118696;27;20055;-82
2022/07/22 08:42:45;;;;;;;3.25;1.02;;;17.40;99.90;;;;;;5136494;27;20211;-82
2022/07/22 08:45:11;;;;;;;8.20;2.55;;;;;;;;;;5135230;27;20054;-82
2022/07/22 08:47:37;;;;;;;3.38;1.15;;;;;;;;;;5118640;27;20403;-81
2022/07/22 08:50:05;;;;;;;1.52;0.90;;;;;;;;;;5117601;27;20127;-83
2022/07/22 08:52:31;;;;;;;3.30;1.00;;;17.50;99.90;;;;;;5135553;27;20039;-82
2022/07/22 08:54:57;;;;;;;5.18;1.05;;;;;;;;;;5135707;27;20418;-84
2022/07/22 08:57:23;;;;;;;4.63;1.38;;;17.40;99.90;;;;;;5136866;27;20079;-83
2022/07/22 08:59:57;;;;;;;1.45;0.80;;;17.60;99.90;;;;;;5135309;27;20480;-81
2022/07/22 09:02:23;;;;;;;2.95;1.17;;;;;;;;;;5118380;27;20112;-82
2022/07/22 09:04:52;;;;;;;3.63;1.15;;;17.80;99.90;;;;;;5135584;27;20035;-83
2022/07/22 09:07:34;;;;;;;4.88;0.93;;;17.80;99.90;;;;;;5136927;27;20047;-83
2022/07/22 09:10:01;;;;;;;3.72;0.90;;;17.90;99.90;;;;;;5101141;27;20047;-82
2022/07/22 09:12:29;;;;;;;2.60;1.27;;;;;;;;;;5136313;27;20042;-82
2022/07/22 09:14:57;;;;;;;2.58;0.98;;;17.80;99.90;;;;;;5117926;27;20058;-82
2022/07/22 09:17:35;;;;;;;1.05;0.80;;;17.70;99.90;;;;;;5101869;27;20043;-82
2022/07/22 09:20:05;;;;;;;2.75;0.90;;;17.80;99.90;;;;;;5101235;27;20042;-81
2022/07/22 09:22:31;;;;;;;7.53;1.98;;;;;;;;;;5118996;27;20051;-82
2022/07/22 09:24:57;;;;;;;11.02;1.55;;;;;;;;;;5101831;27;20541;-81
2022/07/22 09:27:28;;;;;;;2.42;0.85;;;17.80;99.90;;;;;;5118345;27;20051;-82
2022/07/22 09:29:58;;;;;;;4.38;1.65;;;;;;;;;;5102065;27;20116;-80
2022/07/22 09:32:24;;;;;;;3.63;0.95;;;;;;;;;;5117587;27;20047;-81
2022/07/22 09:34:50;;;;;;;11.20;1.45;;;;;;;;;;5117700;27;20095;-81
2022/07/22 09:37:17;;;;;;;3.00;1.00;;;18.10;99.90;;;;;;5117920;27;20054;-81
2022/07/22 09:39:43;;;;;;;13.30;2.92;;;;;;;;;;5117740;27;20051;-82
2022/07/22 09:42:10;;;;;;;8.77;1.88;;;;;;;;;;5116554;27;20407;-82
2022/07/22 09:44:36;;;;;;;5.43;1.38;;;;;;;;;;5133573;27;20039;-84
2022/07/22 09:47:02;;;;;;;1.58;0.90;;;;;;;;;;5115518;27;20100;-83
2022/07/22 09:49:37;;;;;;;1.95;0.95;;;18.30;99.90;;;;;;5115558;27;20039;-81
2022/07/22 09:52:03;;;;;;;3.67;1.00;;;;;;;;;;5133666;27;20054;-83
2022/07/22 09:54:29;;;;;;;10.40;1.60;;;18.30;99.90;;;;;;5115676;27;20084;-82
2022/07/22 09:56:56;;;;;;;3.50;1.10;;;;;;;;;;5098365;27;20059;-85
2022/07/22 09:59:22;;;;;;;4.22;1.10;;;;;;;;;;5114916;27;20069;-83
2022/07/22 10:01:55;;;;;;;6.15;1.27;;;18.00;99.90;;;;;;5133198;27;20047;-83
2022/07/22 10:04:21;;;;;;;7.45;1.33;;;;;;;;;;5114530;27;20043;-82
2022/07/22 10:06:54;;;;;;;5.13;1.27;;;18.00;99.90;;;;;;5115284;27;20043;-82
2022/07/22 10:09:22;;;;;;;5.80;1.10;;;17.60;99.90;;;;;;5098598;27;20416;-85
2022/07/22 10:11:48;;;;;;;1.80;1.02;;;;;;;;;;5116317;27;20551;-82
2022/07/22 10:14:17;;;;;;;3.95;1.00;;;17.80;99.90;;;;;;5134179;27;20050;-83
2022/07/22 10:16:44;;;;;;;4.70;1.42;;;;;;;;;;5099251;27;20043;-82
2022/07/22 10:19:11;;;;;;;3.50;1.33;;;18.00;99.90;;;;;;5098744;27;20092;-86
2022/07/22 10:21:37;;;;;;;6.82;1.85;;;;;;;;;;5116160;27;20049;-85
2022/07/22 10:24:23;;;;;;;4.25;0.98;;;;;;;;;;5098517;27;20034;-85
2022/07/22 10:26:55;;;;;;;3.67;0.90;;;;;;;;;;5098771;27;20047;-85
2022/07/22 10:29:47;;;;;;;4.57;0.90;;;18.00;99.90;;;;;;5134100;27;20039;-83
2022/07/22 10:32:15;;;;;;;7.95;2.95;;;18.10;99.90;;;;;;5098280;27;20082;-83
2022/07/22 10:34:42;;;;;;;3.17;0.90;;;;;;;;;;5098133;27;20123;-86
2022/07/22 10:37:47;;;;;;;4.55;1.65;;;18.30;99.90;;;;;;5114655;27;20070;-86
2022/07/22 10:40:19;;;;;;;5.18;0.90;;;18.30;99.90;;;;;;5114319;27;20135;-82
2022/07/22 10:42:58;;;;;;;2.20;0.98;;;;;;;;;;5097742;27;20054;-84
2022/07/22 10:45:26;;;;;;;5.75;1.10;;;18.20;99.90;;;;;;5086197;28;20086;-84
2022/07/22 10:47:57;;;;;;;2.15;1.02;;;18.30;99.90;;;;;;5077867;28;20070;-84
2022/07/22 10:50:38;;;;;;;1.80;1.02;;;18.60;99.90;;;;;;5077320;28;20097;-83
2022/07/22 10:53:09;;;;;;;2.78;1.15;;;18.40;99.90;;;;;;5077387;28;20073;-85
2022/07/22 10:55:36;;;;;;;4.70;0.93;;;;;;;;;;5077437;28;20082;-82
2022/07/22 10:58:40;;;;;;;2.03;0.90;;;18.70;99.90;;;;;;5093889;28;20054;-83
2022/07/22 11:01:09;;;;;;;2.35;0.90;;;18.70;99.90;;;;;;5115024;28;20050;-82
2022/07/22 11:03:37;;;;;;;2.97;1.08;;;18.90;99.90;;;;;;5118417;28;20445;-83
2022/07/22 11:06:24;;;;;;;2.38;0.80;;;18.70;99.90;;;;;;5102127;28;20051;-81
2022/07/22 11:08:52;;;;;;;1.35;0.82;;;18.80;99.90;;;;;;5118104;28;20126;-82
2022/07/22 11:11:50;;;;;;;2.97;0.70;;;18.70;99.90;;;;;;5098827;28;20160;-82
2022/07/22 11:14:26;;;;;;;1.33;0.82;;;18.60;99.90;;;;;;5114249;28;20093;-82
2022/07/22 11:16:55;;;;;;;4.40;0.98;;;18.70;99.90;;;;;;5114610;28;20084;-82
2022/07/22 11:19:26;;;;;;;3.83;1.13;;;18.60;99.90;;;;;;5114129;28;20122;-82
2022/07/22 11:21:54;;;;;;;1.70;0.88;;;18.60;99.90;;;;;;5113811;28;20043;-82
2022/07/22 11:24:21;;;;;;;2.60;0.90;;;;;;;;;;5114010;27;20092;-82
2022/07/22 11:26:50;;;;;;;3.72;0.93;;;18.70;99.90;;;;;;5097588;28;20035;-82
2022/07/22 11:29:35;;;;;;;3.45;1.00;;;18.60;99.90;;;;;;5114261;28;20047;-82
2022/07/22 11:32:03;;;;;;;1.40;0.88;;;18.70;99.90;;;;;;5097031;28;20053;-83
2022/07/22 11:34:29;;;;;;;1.38;0.77;;;;;;;;;;5113586;28;20054;-82
2022/07/22 11:36:56;;;;;;;1.90;1.58;;;18.80;99.90;;;;;;5096710;28;20049;-82
2022/07/22 11:39:30;;;;;;;1.65;0.80;;;18.70;99.90;;;;;;5110268;28;20051;-82
2022/07/22 11:41:59;;;;;;;1.00;0.90;;;18.80;99.90;;;;;;5110506;28;20416;-82
2022/07/22 11:44:27;;;;;;;2.05;0.75;;;18.90;99.90;;;;;;5093378;28;20126;-84
2022/07/22 11:46:58;;;;;;;1.13;0.77;;;;;;;;;;5093493;28;20051;-84
2022/07/22 11:49:25;;;;;;;2.83;0.85;;;18.80;99.90;;;;;;5111288;28;20054;-82
2022/07/22 11:51:52;;;;;;;1.40;0.60;;;19.00;99.90;;;;;;5097207;28;20062;-82
2022/07/22 11:54:18;;;;;;;1.10;0.50;;;19.00;99.90;;;;;;5097695;28;20044;-83
2022/07/22 11:56:44;;;;;;;4.68;0.70;;;;;;;;;;5097563;28;20412;-85
2022/07/22 11:59:17;;;;;;;3.97;1.00;;;19.10;99.90;;;;;;5097506;28;20039;-82
2022/07/22 12:01:46;;;;;;;4.80;0.88;;;;;;;;;;5114247;28;20048;-83
2022/07/22 12:04:15;;;;;;;4.35;0.90;;;18.80;99.90;;;;;;5114235;28;20079;-83
2022/07/22 12:06:44;;;;;;;1.42;0.70;;;19.10;99.90;;;;;;5113883;28;20112;-85
2022/07/22 12:09:21;;;;;;;2.03;1.02;;;19.00;99.90;;;;;;5097502;28;20410;-85
2022/07/22 12:11:49;;;;;;;3.72;0.90;;;19.00;99.90;;;;;;5096953;28;20055;-83
2022/07/22 12:14:24;;;;;;;0.88;0.88;;;19.10;99.90;;;;;;5113525;27;20064;-82
2022/07/22 12:17:05;;;;;;;2.72;0.70;;;19.10;99.90;;;;;;5109197;27;20047;-82
2022/07/22 12:19:33;;;;;;;0.88;0.60;;;19.10;99.90;;;;;;5100131;27;20042;-84
2022/07/22 12:22:01;;;;;;;4.63;1.42;;;19.10;99.90;;;;;;5100109;27;20047;-82
2022/07/22 12:24:32;;;;;;;3.20;0.80;;;19.00;99.90;;;;;;5116995;27;20035;-83
2022/07/22 12:27:10;;;;;;;0.80;0.80;;;19.10;99.90;;;;;;5135123;27;20047;-83
2022/07/22 12:29:36;;;;;;;5.15;1.80;;;;;;;;;;5116930;27;20491;-85
2022/07/22 12:32:14;;;;;;;4.97;0.90;;;19.20;99.90;;;;;;5135739;27;20051;-82
2022/07/22 12:34:55;;;;;;;2.55;0.80;;;19.40;99.90;;;;;;5117477;27;20047;-83
2022/07/22 12:37:40;;;;;;;2.80;2.05;;;19.50;99.90;;;;;;5116893;27;20043;-84
2022/07/22 12:40:07;;;;;;;3.83;0.73;;;19.60;99.90;;;;;;5116835;27;20448;-83
2022/07/22 12:42:38;;;;;;;4.50;1.65;;;19.30;99.90;;;;;;5100127;27;20495;-85
2022/07/22 12:45:10;;;;;;;4.72;1.27;;;19.10;99.90;;;;;;5116582;27;20039;-83
2022/07/22 12:47:53;;;;;;;6.63;1.00;;;19.60;99.90;;;;;;5116052;27;20046;-82
2022/07/22 12:50:27;;;;;;;2.60;1.05;;;19.30;99.90;;;;;;5116264;27;20502;-85
2022/07/22 12:53:08;;;;;;;7.47;1.05;;;19.20;99.90;;;;;;5099481;27;20082;-85
2022/07/22 12:55:37;;;;;;;3.88;1.25;;;19.20;99.90;;;;;;5099274;27;20042;-85
2022/07/22 12:58:04;;;;;;;2.55;0.82;;;19.40;99.90;;;;;;5115956;27;20051;-83
2022/07/22 13:00:33;;;;;;;2.92;2.15;;;19.30;99.90;;;;;;5099196;27;20483;-83
2022/07/22 13:02:59;;;;;;;3.80;1.00;;;;;;;;;;5098272;27;20051;-84
2022/07/22 13:05:25;;;;;;;1.00;1.00;;;19.30;99.90;;;;;;5099035;27;20039;-85
2022/07/22 13:07:53;;;;;;;3.08;1.08;;;;;;;;;;5115613;27;20130;-83
2022/07/22 13:10:21;;;;;;;5.60;0.90;;;19.20;99.90;;;;;;5099069;27;20395;-85
2022/07/22 13:12:47;;;;;;;1.35;1.00;;;;;;;;;;5099574;27;20125;-85
2022/07/22 13:15:13;;;;;;;3.33;1.02;;;;;;;;;;5116470;27;20043;-86
2022/07/22 13:17:42;;;;;;;2.58;1.23;;;;;;;;;;5117833;27;20482;-86
2022/07/22 13:20:10;;;;;;;2.83;1.52;;;19.30;99.90;;;;;;5102536;27;20079;-85
2022/07/22 13:22:36;;;;;;;4.43;1.00;;;;;;;;;;5122674;27;20448;-86
2022/07/22 13:25:03;;;;;;;2.13;1.02;;;19.20;99.90;;;;;;5106460;27;20050;-84
2022/07/22 13:27:30;;;;;;;2.58;1.20;;;;;;;;;;5107217;27;20046;-84
2022/07/22 13:29:56;;;;;;;2.17;1.30;;;;;;;;;;5123268;27;20487;-83
2022/07/22 13:32:22;;;;;;;3.20;1.17;;;;;;;;;;5123345;27;20051;-85
2022/07/22 13:34:49;;;;;;;2.90;1.23;;;;;;;;;;5123355;27;20046;-84
2022/07/22 13:37:15;;;;;;;2.97;1.10;;;;;;;;;;5123612;27;20058;-85
2022/07/22 13:39:42;;;;;;;6.70;1.25;;;;;;;;;;5105243;27;20107;-87
2022/07/22 13:42:08;;;;;;;1.45;1.20;;;;;;;;;;5105180;27;20472;-82
2022/07/22 13:44:37;;;;;;;5.32;2.55;;;;;;;;;;5122585;27;20202;-85
2022/07/22 13:47:03;;;;;;;2.58;1.15;;;;;;;;;;5105611;27;20047;-83
2022/07/22 13:49:35;;;;;;;2.35;1.00;;;;;;;;;;5140995;27;20035;-84
2022/07/22 13:52:01;;;;;;;5.50;1.25;;;;;;;;;;5122556;27;20047;-83
2022/07/22 13:54:27;;;;;;;4.10;1.10;;;;;;;;;;5122585;27;20046;-84
2022/07/22 13:56:54;;;;;;;4.90;1.15;;;;;;;;;;5121937;27;20050;-84
2022/07/22 13:59:20;;;;;;;4.70;1.13;;;;;;;;;;5106438;27;20078;-85
2022/07/22 14:01:46;;;;;;;4.85;1.23;;;;;;;;;;5122436;27;20043;-87
2022/07/22 14:04:12;;;;;;;2.88;2.15;;;;;;;;;;5132593;27;20039;-89
2022/07/22 14:06:38;;;;;;;1.92;1.10;;;;;;;;;;5109994;27;20039;-88
2022/07/22 14:09:04;;;;;;;3.78;1.20;;;19.60;99.90;;;;;;5123917;27;20085;-86